Time;durP1;ratioP1;P1;durP2;ratioP2;P2;SDS_P1;SDS_P2;PMS_P1;PMS_P2;Temp;Humidity;BMP_temperature;BMP_pressure;BME280_temperature;BME280_humidity;BME280_pressure;Samples;Min_cycle;Max_cycle;Signal;HPM_P1;HPM_P2
2022/09/30 00:00:44;;;;;;;6.83;6.23;;;;;;;;;;5055028;28;20196;-45
2022/09/30 00:03:12;;;;;;;6.53;5.87;;;;;;;;;;5054775;28;20666;-45
2022/09/30 00:05:38;;;;;;;6.23;5.33;;;;;;;;;;5054350;28;20200;-45
2022/09/30 00:08:04;;;;;;;6.90;5.57;;;;;;;;;;5049457;28;20212;-46
2022/09/30 00:10:30;;;;;;;6.33;5.83;;;;;;;;;;5054029;28;20559;-45
2022/09/30 00:12:57;;;;;;;6.57;5.87;;;;;;;;;;5054092;28;20228;-45
2022/09/30 00:15:23;;;;;;;6.60;5.93;;;;;;;;;;5054200;28;20855;-45
2022/09/30 00:17:49;;;;;;;5.90;5.40;;;;;;;;;;5054239;28;20196;-45
2022/09/30 00:20:17;;;;;;;7.60;5.63;;;;;;;;;;5054014;28;20206;-45
2022/09/30 00:22:43;;;;;;;6.83;5.87;;;;;;;;;;5054528;28;20280;-45
2022/09/30 00:25:10;;;;;;;6.47;5.87;;;;;;;;;;5054086;28;20200;-45
2022/09/30 00:27:36;;;;;;;7.37;6.67;;;;;;;;;;5054337;28;20196;-45
2022/09/30 00:30:02;;;;;;;7.47;6.33;;;;;;;;;;5053795;28;20223;-45
2022/09/30 00:32:28;;;;;;;8.37;6.90;;;;;;;;;;5053773;28;20310;-45
2022/09/30 00:34:54;;;;;;;6.93;6.23;;;;;;;;;;5054007;28;20615;-45
2022/09/30 00:37:21;;;;;;;8.23;7.43;;;;;;;;;;5054189;28;20200;-45
2022/09/30 00:39:47;;;;;;;7.73;6.93;;;;;;;;;;5053609;28;20286;-45
2022/09/30 00:42:14;;;;;;;7.30;6.60;;;;;;;;;;5052282;28;20196;-45
2022/09/30 00:44:58;;;;;;;8.07;7.27;;;;;;;;;;5054031;28;20254;-45
2022/09/30 00:47:33;;;;;;;10.37;7.20;;;;;;;;;;5052130;28;20720;-45
2022/09/30 00:50:02;;;;;;;8.83;7.87;;;;;;;;;;5053885;28;20415;-45
2022/09/30 00:52:30;;;;;;;7.90;7.27;;;;;;;;;;5054022;28;20231;-45
2022/09/30 00:54:58;;;;;;;9.17;8.27;;;;;;;;;;5053767;28;20211;-45
2022/09/30 00:57:24;;;;;;;9.37;8.47;;;;;;;;;;5053823;28;20298;-45
2022/09/30 00:59:51;;;;;;;9.27;8.37;;;;;;;;;;5053916;28;20283;-45
2022/09/30 01:02:17;;;;;;;10.37;9.27;;;;;;;;;;5053960;28;20196;-45
2022/09/30 01:04:43;;;;;;;11.47;9.93;;;;;;;;;;5053714;28;20259;-45
2022/09/30 01:07:10;;;;;;;12.03;10.83;;;;;;;;;;5053412;28;20564;-45
2022/09/30 01:09:38;;;;;;;11.50;10.40;;;;;;;;;;5053615;28;20291;-45
2022/09/30 01:12:05;;;;;;;10.67;9.67;;;;;;;;;;5053515;28;20212;-45
2022/09/30 01:14:31;;;;;;;11.43;10.33;;;;;;;;;;5053449;28;20246;-45
2022/09/30 01:17:01;;;;;;;14.40;11.60;;;;;;;;;;5053397;28;20712;-45
2022/09/30 01:19:40;;;;;;;13.40;12.10;;;;;;;;;;5053402;28;20286;-45
2022/09/30 01:22:13;;;;;;;13.73;12.20;;;;;;;;;;5053400;28;20224;-45
2022/09/30 01:24:47;;;;;;;13.00;11.70;;;;;;;;;;5053355;28;20196;-45
2022/09/30 01:27:22;;;;;;;12.00;10.80;;;;;;;;;;5052698;28;20200;-44
2022/09/30 01:30:13;;;;;;;11.67;10.53;;;;;;;;;;5052762;28;20724;-45
2022/09/30 01:32:45;;;;;;;11.87;10.67;;;;;;;;;;5053139;28;20327;-45
2022/09/30 01:35:17;;;;;;;11.23;10.23;;;;;;;;;;5053172;28;20216;-45
2022/09/30 01:37:45;;;;;;;11.47;10.27;;;;;;;;;;5052894;28;20295;-45
2022/09/30 01:40:21;;;;;;;11.70;10.20;;;;;;;;;;5053009;28;20204;-45
2022/09/30 01:42:51;;;;;;;11.10;10.07;;;;;;;;;;5053162;28;20282;-45
2022/09/30 01:45:19;;;;;;;10.80;9.73;;;;;;;;;;5052667;28;20211;-45
2022/09/30 01:47:49;;;;;;;11.90;10.70;;;;;;;;;;5052758;28;20215;-45
2022/09/30 01:50:18;;;;;;;10.57;9.47;;;;;;;;;;5052992;28;20212;-45
2022/09/30 01:52:46;;;;;;;13.10;11.77;;;;;;;;;;5052520;28;20278;-45
2022/09/30 01:55:15;;;;;;;12.30;11.17;;;;;;;;;;5052615;28;20684;-45
2022/09/30 01:57:43;;;;;;;14.13;12.60;;;;;;;;;;5052765;28;20208;-45
2022/09/30 02:00:10;;;;;;;13.83;12.53;;;;;;;;;;5052267;28;20203;-45
2022/09/30 02:02:40;;;;;;;15.37;13.80;;;;;;;;;;5052703;28;20192;-45
2022/09/30 02:05:09;;;;;;;12.93;11.77;;;;;;;;;;5052485;28;20208;-45
2022/09/30 02:07:37;;;;;;;12.90;11.70;;;;;;;;;;5052611;28;20244;-45
2022/09/30 02:10:07;;;;;;;14.80;12.47;;;;;;;;;;5052476;28;20685;-45
2022/09/30 02:12:35;;;;;;;13.30;12.10;;;;;;;;;;5052124;28;20576;-45
2022/09/30 02:15:04;;;;;;;12.70;11.57;;;;;;;;;;5052429;28;20647;-45
2022/09/30 02:17:32;;;;;;;12.63;11.50;;;;;;;;;;5052402;28;20204;-44
2022/09/30 02:19:59;;;;;;;12.67;11.40;;;;;;;;;;5052289;28;20203;-44
2022/09/30 02:22:28;;;;;;;12.03;10.87;;;;;;;;;;5052109;28;20196;-45
2022/09/30 02:24:56;;;;;;;13.17;11.97;;;;;;;;;;5052142;28;20611;-45
2022/09/30 02:27:28;;;;;;;12.30;11.20;;;;;;;;;;5051980;28;20210;-45
2022/09/30 02:29:56;;;;;;;13.47;12.17;;;;;;;;;;5052193;28;20218;-45
2022/09/30 02:32:24;;;;;;;13.40;12.10;;;;;;;;;;5051650;28;20242;-45
2022/09/30 02:34:52;;;;;;;15.70;13.90;;;;;;;;;;5051908;28;20236;-45
2022/09/30 02:37:21;;;;;;;14.10;12.73;;;;;;;;;;5051503;28;20242;-45
2022/09/30 02:39:51;;;;;;;16.20;13.53;;;;;;;;;;5051866;28;20200;-45
2022/09/30 02:42:19;;;;;;;14.20;12.80;;;;;;;;;;5051324;28;20553;-45
2022/09/30 02:44:45;;;;;;;13.70;12.40;;;;;;;;;;5051972;28;20200;-45
2022/09/30 02:47:15;;;;;;;13.60;12.30;;;;;;;;;;5051871;28;20204;-45
2022/09/30 02:49:45;;;;;;;13.63;12.37;;;;;;;;;;5052110;28;20202;-45
2022/09/30 02:52:15;;;;;;;14.37;12.93;;;;;;;;;;5051563;28;20216;-45
2022/09/30 02:54:47;;;;;;;12.70;11.60;;;;;;;;;;5051766;28;20188;-45
2022/09/30 02:57:18;;;;;;;13.57;12.17;;;;;;;;;;5051505;28;20203;-45
2022/09/30 02:59:44;;;;;;;14.43;13.13;;;;;;;;;;5051691;28;20223;-45
2022/09/30 03:02:10;;;;;;;13.33;12.07;;;;;;;;;;5051560;28;20196;-45
2022/09/30 03:04:38;;;;;;;13.63;12.27;;;;;;;;;;5051611;28;20206;-45
2022/09/30 03:07:04;;;;;;;13.53;12.23;;;;;;;;;;5051381;28;20207;-46
2022/09/30 03:09:30;;;;;;;14.10;12.80;;;;;;;;;;5051400;28;20199;-45
2022/09/30 03:12:03;;;;;;;14.13;12.83;;;;;;;;;;5051079;28;20196;-45
2022/09/30 03:14:37;;;;;;;13.60;12.30;;;;;;;;;;5050989;28;20195;-45
2022/09/30 03:17:16;;;;;;;13.40;12.27;;;;;;;;;;5051321;28;20199;-45
2022/09/30 03:19:50;;;;;;;14.10;12.70;;;;;;;;;;5051579;28;20200;-45
2022/09/30 03:22:23;;;;;;;13.50;12.30;;;;;;;;;;5051227;28;20547;-45
2022/09/30 03:25:00;;;;;;;12.80;11.70;;;;;;;;;;5051183;28;20202;-45
2022/09/30 03:27:31;;;;;;;18.60;12.10;;;;;;;;;;5051280;28;20215;-45
2022/09/30 03:30:00;;;;;;;13.33;12.13;;;;;;;;;;5051078;28;20200;-44
2022/09/30 03:32:34;;;;;;;12.93;11.73;;;;;;;;;;5051080;28;20594;-44
2022/09/30 03:35:02;;;;;;;13.57;12.47;;;;;;;;;;5051102;28;20203;-45
2022/09/30 03:37:32;;;;;;;14.20;12.90;;;;;;;;;;5051110;28;20200;-44
2022/09/30 03:40:01;;;;;;;14.80;13.40;;;;;;;;;;5051299;28;20206;-44
2022/09/30 03:42:31;;;;;;;14.53;13.17;;;;;;;;;;5051005;28;20207;-44
2022/09/30 03:45:01;;;;;;;15.17;13.73;;;;;;;;;;5051241;28;20662;-43
2022/09/30 03:47:30;;;;;;;16.67;15.17;;;;;;;;;;5051299;28;20207;-44
2022/09/30 03:49:59;;;;;;;17.00;15.33;;;;;;;;;;5051081;28;20324;-45
2022/09/30 03:52:26;;;;;;;17.57;15.87;;;;;;;;;;5051043;28;20591;-45
2022/09/30 03:54:53;;;;;;;19.07;17.00;;;;;;;;;;5051083;28;20200;-43
2022/09/30 03:57:19;;;;;;;19.90;17.97;;;;;;;;;;5050597;28;20242;-43
2022/09/30 03:59:45;;;;;;;20.93;18.80;;;;;;;;;;5050626;28;20192;-44
2022/09/30 04:02:13;;;;;;;21.30;19.17;;;;;;;;;;5050857;28;20197;-43
2022/09/30 04:04:42;;;;;;;22.33;20.17;;;;;;;;;;5051020;28;20242;-43
2022/09/30 04:07:09;;;;;;;21.20;19.20;;;;;;;;;;5050854;28;20220;-44
2022/09/30 04:09:35;;;;;;;18.73;16.90;;;;;;;;;;5050971;28;20673;-44
2022/09/30 04:12:01;;;;;;;19.90;17.43;;;;;;;;;;5050531;28;20200;-43
2022/09/30 04:14:27;;;;;;;21.00;19.00;;;;;;;;;;5050331;28;20650;-43
2022/09/30 04:16:53;;;;;;;21.60;19.40;;;;;;;;;;5050977;28;20291;-45
2022/09/30 04:19:21;;;;;;;21.17;19.17;;;;;;;;;;5050611;28;20572;-44
2022/09/30 04:21:47;;;;;;;21.63;19.43;;;;;;;;;;5051943;28;20208;-43
2022/09/30 04:24:13;;;;;;;21.30;19.40;;;;;;;;;;5053447;28;20276;-44
2022/09/30 04:26:39;;;;;;;23.30;21.00;;;;;;;;;;5054521;28;20299;-44
2022/09/30 04:29:05;;;;;;;23.47;21.07;;;;;;;;;;5053849;28;20242;-43
2022/09/30 04:31:31;;;;;;;23.07;20.63;;;;;;;;;;5054184;28;20494;-44
2022/09/30 04:33:57;;;;;;;22.17;20.03;;;;;;;;;;5054251;28;20714;-48
2022/09/30 04:36:25;;;;;;;24.10;21.27;;;;;;;;;;5054190;28;20210;-44
2022/09/30 04:38:52;;;;;;;25.47;23.07;;;;;;;;;;5054013;28;20446;-44
2022/09/30 04:41:18;;;;;;;24.47;21.87;;;;;;;;;;5054188;28;20319;-44
2022/09/30 04:43:45;;;;;;;25.43;22.83;;;;;;;;;;5054261;28;20203;-44
2022/09/30 04:46:11;;;;;;;25.80;23.20;;;;;;;;;;5053903;28;20334;-43
2022/09/30 04:48:37;;;;;;;25.50;22.80;;;;;;;;;;5054149;28;20196;-44
2022/09/30 04:51:03;;;;;;;25.57;22.93;;;;;;;;;;5053903;28;20437;-43
2022/09/30 04:53:31;;;;;;;26.43;23.67;;;;;;;;;;5053773;28;20278;-43
2022/09/30 04:55:58;;;;;;;24.87;22.47;;;;;;;;;;5053830;28;20446;-43
2022/09/30 04:58:25;;;;;;;23.43;21.10;;;;;;;;;;5053775;28;20211;-43
2022/09/30 05:00:51;;;;;;;22.63;20.33;;;;;;;;;;5053461;28;20513;-44
2022/09/30 05:03:18;;;;;;;22.53;20.37;;;;;;;;;;5053368;28;20462;-44
2022/09/30 05:05:44;;;;;;;22.80;20.53;;;;;;;;;;5053816;28;20204;-44
2022/09/30 05:08:10;;;;;;;22.33;20.23;;;;;;;;;;5053441;28;20226;-44
2022/09/30 05:10:39;;;;;;;20.47;18.40;;;;;;;;;;5053423;28;20655;-44
2022/09/30 05:13:05;;;;;;;20.80;18.70;;;;;;;;;;5053028;28;20497;-44
2022/09/30 05:15:31;;;;;;;21.23;19.10;;;;;;;;;;5053007;28;20196;-44
2022/09/30 05:17:57;;;;;;;22.20;20.00;;;;;;;;;;5052798;28;20224;-45
2022/09/30 05:20:23;;;;;;;19.30;17.40;;;;;;;;;;5052976;28;20269;-44
2022/09/30 05:22:53;;;;;;;18.83;16.87;;;;;;;;;;5053223;28;20238;-44
2022/09/30 05:25:19;;;;;;;19.43;17.40;;;;;;;;;;5053118;28;20203;-44
2022/09/30 05:27:49;;;;;;;17.77;15.93;;;;;;;;;;5052967;28;20267;-44
2022/09/30 05:30:15;;;;;;;17.37;15.83;;;;;;;;;;5053302;28;20257;-43
2022/09/30 05:32:41;;;;;;;18.60;16.70;;;;;;;;;;5052755;28;20247;-44
2022/09/30 05:35:08;;;;;;;17.30;15.60;;;;;;;;;;5052423;28;20196;-44
2022/09/30 05:37:34;;;;;;;17.10;15.43;;;;;;;;;;5053127;28;20201;-44
2022/09/30 05:40:00;;;;;;;15.97;14.57;;;;;;;;;;5052514;28;20290;-44
2022/09/30 05:42:26;;;;;;;17.47;14.63;;;;;;;;;;5053327;28;20559;-46
2022/09/30 05:44:54;;;;;;;20.03;17.37;;;;;;;;;;5053304;28;20193;-45
2022/09/30 05:47:20;;;;;;;18.70;16.57;;;;;;;;;;5053351;28;20729;-44
2022/09/30 05:49:46;;;;;;;19.07;17.17;;;;;;;;;;5053218;28;20197;-44
2022/09/30 05:52:13;;;;;;;19.93;17.83;;;;;;;;;;5052456;28;20228;-45
2022/09/30 05:54:39;;;;;;;20.00;18.10;;;;;;;;;;5052405;28;20435;-45
2022/09/30 05:57:07;;;;;;;18.70;16.90;;;;;;;;;;5052778;28;20200;-45
2022/09/30 05:59:33;;;;;;;20.47;18.47;;;;;;;;;;5052778;28;20258;-45
2022/09/30 06:02:00;;;;;;;21.33;19.30;;;;;;;;;;5052581;28;20988;-45
2022/09/30 06:04:26;;;;;;;22.40;20.07;;;;;;;;;;5052298;28;20204;-45
2022/09/30 06:06:52;;;;;;;22.97;20.30;;;;;;;;;;5052493;28;20227;-44
2022/09/30 06:09:18;;;;;;;22.63;20.43;;;;;;;;;;5052373;28;20489;-45
2022/09/30 06:11:44;;;;;;;24.73;22.20;;;;;;;;;;5052387;28;20188;-44
2022/09/30 06:14:10;;;;;;;24.97;22.57;;;;;;;;;;5052182;28;20238;-45
2022/09/30 06:16:36;;;;;;;26.83;23.97;;;;;;;;;;5052329;28;20200;-44
2022/09/30 06:19:05;;;;;;;27.47;24.77;;;;;;;;;;5052474;28;20442;-44
2022/09/30 06:21:31;;;;;;;28.03;25.10;;;;;;;;;;5052401;28;20204;-44
2022/09/30 06:23:57;;;;;;;28.03;25.03;;;;;;;;;;5052330;28;20443;-45
2022/09/30 06:26:23;;;;;;;28.60;25.70;;;;;;;;;;5050371;28;20609;-51
2022/09/30 06:28:50;;;;;;;29.73;25.37;;;;;;;;;;5052052;28;20469;-44
2022/09/30 06:31:16;;;;;;;29.90;25.70;;;;;;;;;;5051749;28;20866;-44
2022/09/30 06:33:42;;;;;;;28.40;25.60;;;;;;;;;;5052006;28;20969;-44
2022/09/30 06:36:10;;;;;;;28.20;25.30;;;;;;;;;;5051678;28;20434;-44
2022/09/30 06:38:36;;;;;;;26.47;23.77;;;;;;;;;;5051678;28;20274;-45
2022/09/30 06:41:02;;;;;;;25.93;23.20;;;;;;;;;;5051141;28;20204;-45
2022/09/30 06:43:28;;;;;;;25.80;23.17;;;;;;;;;;5051370;28;20214;-44
2022/09/30 06:45:54;;;;;;;25.23;22.63;;;;;;;;;;5050876;28;20200;-45
2022/09/30 06:48:22;;;;;;;25.70;23.10;;;;;;;;;;5051663;28;20192;-45
2022/09/30 06:50:48;;;;;;;25.10;22.53;;;;;;;;;;5052095;28;20286;-45
2022/09/30 06:53:15;;;;;;;24.47;22.07;;;;;;;;;;5051479;28;20231;-50
2022/09/30 06:55:41;;;;;;;22.60;20.30;;;;;;;;;;5052092;28;20733;-44
2022/09/30 06:58:15;;;;;;;22.10;19.97;;;;;;;;;;5050830;28;20196;-43
2022/09/30 07:00:41;;;;;;;21.03;19.07;;;;;;;;;;5051646;28;20664;-43
2022/09/30 07:03:16;;;;;;;23.17;20.77;;;;;;;;;;5051405;28;20200;-44
2022/09/30 07:05:42;;;;;;;21.20;19.30;;;;;;;;;;5051694;28;20257;-45
2022/09/30 07:08:09;;;;;;;21.73;19.30;;;;;;;;;;5050999;28;20718;-44
2022/09/30 07:10:37;;;;;;;19.70;17.80;;;;;;;;;;5050949;28;20296;-44
2022/09/30 07:13:03;;;;;;;19.93;18.07;;;;;;;;;;5051192;28;20221;-44
2022/09/30 07:15:29;;;;;;;19.63;17.83;;;;;;;;;;5051289;28;20202;-44
2022/09/30 07:17:59;;;;;;;19.87;18.00;;;;;;;;;;5050677;28;20199;-44
2022/09/30 07:20:25;;;;;;;19.73;17.83;;;;;;;;;;5050694;28;20200;-44
2022/09/30 07:22:51;;;;;;;19.73;17.70;;;;;;;;;;5050332;28;20355;-43
2022/09/30 07:25:18;;;;;;;17.73;16.13;;;;;;;;;;5051045;28;20235;-48
2022/09/30 07:27:45;;;;;;;19.27;17.23;;;;;;;;;;5050936;28;20196;-44
2022/09/30 07:30:12;;;;;;;16.80;15.30;;;;;;;;;;5050873;28;20250;-44
2022/09/30 07:32:38;;;;;;;17.03;15.53;;;;;;;;;;5050647;28;20702;-44
2022/09/30 07:35:05;;;;;;;16.83;15.23;;;;;;;;;;5051091;28;20196;-44
2022/09/30 07:37:34;;;;;;;15.13;13.73;;;;;;;;;;5050803;28;20214;-44
2022/09/30 07:40:01;;;;;;;15.90;14.37;;;;;;;;;;5051393;28;20655;-45
2022/09/30 07:42:28;;;;;;;15.93;14.33;;;;;;;;;;5051341;28;20279;-44
2022/09/30 07:44:55;;;;;;;14.33;12.93;;;;;;;;;;5051353;28;20207;-45
2022/09/30 07:47:22;;;;;;;14.47;13.00;;;;;;;;;;5049914;28;20311;-44
2022/09/30 07:49:48;;;;;;;13.33;12.23;;;;;;;;;;5050793;28;20200;-44
2022/09/30 07:52:14;;;;;;;13.50;12.30;;;;;;;;;;5050383;28;20279;-44
2022/09/30 07:54:41;;;;;;;14.07;12.77;;;;;;;;;;5050475;28;20200;-45
2022/09/30 07:57:07;;;;;;;14.57;13.23;;;;;;;;;;5052480;28;20654;-44
2022/09/30 07:59:34;;;;;;;13.37;12.07;;;;;;;;;;5054644;28;20278;-45
2022/09/30 08:02:02;;;;;;;13.23;12.03;;;;;;;;;;5054333;28;20207;-45
2022/09/30 08:04:28;;;;;;;16.53;12.07;;;;;;;;;;5054002;28;20203;-45
2022/09/30 08:06:55;;;;;;;12.70;11.50;;;;;;;;;;5054649;28;20200;-44
2022/09/30 08:09:22;;;;;;;13.17;11.87;;;;;;;;;;5054789;28;20201;-44
2022/09/30 08:11:48;;;;;;;11.87;10.83;;;;;;;;;;5054700;28;20208;-45
2022/09/30 08:14:15;;;;;;;11.17;10.13;;;;;;;;;;5054317;28;20602;-45
2022/09/30 08:16:41;;;;;;;12.80;10.83;;;;;;;;;;5054381;28;20200;-45
2022/09/30 08:19:12;;;;;;;11.63;10.53;;;;;;;;;;5054389;28;20251;-45
2022/09/30 08:21:38;;;;;;;10.73;9.70;;;;;;;;;;5054063;28;20200;-44
2022/09/30 08:24:04;;;;;;;11.40;10.20;;;;;;;;;;5053467;28;20295;-44
2022/09/30 08:26:30;;;;;;;10.50;9.50;;;;;;;;;;5054195;28;20197;-44
2022/09/30 08:28:56;;;;;;;10.47;9.50;;;;;;;;;;5054711;28;20279;-45
2022/09/30 08:31:23;;;;;;;10.33;9.33;;;;;;;;;;5053992;28;20244;-45
2022/09/30 08:33:50;;;;;;;10.27;9.27;;;;;;;;;;5053125;28;20714;-46
2022/09/30 08:36:18;;;;;;;10.17;9.27;;;;;;;;;;5054069;28;20598;-44
2022/09/30 08:38:44;;;;;;;10.17;9.07;;;;;;;;;;5044801;28;20556;-44
2022/09/30 08:41:19;;;;;;;10.50;9.53;;;;;;;;;;5053673;28;20324;-44
2022/09/30 08:43:53;;;;;;;10.03;9.07;;;;;;;;;;5053917;28;20195;-44
2022/09/30 08:46:29;;;;;;;10.67;9.60;;;;;;;;;;5053913;28;20212;-52
2022/09/30 08:49:01;;;;;;;9.30;8.50;;;;;;;;;;5052013;28;20188;-44
2022/09/30 08:51:31;;;;;;;12.23;9.77;;;;;;;;;;5062231;28;20216;-44
2022/09/30 08:53:59;;;;;;;9.33;8.43;;;;;;;;;;5053357;28;20315;-44
2022/09/30 08:56:26;;;;;;;9.93;8.93;;;;;;;;;;5049888;28;20619;-44
2022/09/30 08:58:55;;;;;;;9.00;7.70;;;;;;;;;;5053474;28;20570;-45
2022/09/30 09:01:26;;;;;;;8.83;8.03;;;;;;;;;;5053690;28;20255;-45
2022/09/30 09:03:53;;;;;;;10.60;8.50;;;;;;;;;;5053772;28;20196;-45
2022/09/30 09:06:23;;;;;;;10.97;7.57;;;;;;;;;;5053595;28;20204;-44
2022/09/30 09:08:58;;;;;;;9.13;8.23;;;;;;;;;;5052592;28;20549;-45
2022/09/30 09:11:32;;;;;;;9.40;7.90;;;;;;;;;;5053633;28;20196;-45
2022/09/30 09:14:01;;;;;;;9.47;7.70;;;;;;;;;;5053484;28;20286;-44
2022/09/30 09:16:31;;;;;;;8.70;7.73;;;;;;;;;;5053454;28;20374;-45
2022/09/30 09:18:58;;;;;;;8.63;7.50;;;;;;;;;;5053453;28;20563;-45
2022/09/30 09:21:30;;;;;;;9.30;7.70;;;;;;;;;;5053043;28;20200;-45
2022/09/30 09:24:00;;;;;;;8.27;7.40;;;;;;;;;;5053522;28;20192;-45
2022/09/30 09:26:26;;;;;;;8.47;7.57;;;;;;;;;;5053207;28;20207;-45
2022/09/30 09:28:58;;;;;;;8.13;7.10;;;;;;;;;;5053378;28;20282;-45
2022/09/30 09:31:25;;;;;;;7.40;6.70;;;;;;;;;;5053011;28;20240;-45
2022/09/30 09:33:51;;;;;;;7.40;6.27;;;;;;;;;;5052813;28;20606;-45
2022/09/30 09:36:27;;;;;;;7.87;7.07;;;;;;;;;;5052760;28;20207;-45
2022/09/30 09:38:59;;;;;;;8.63;6.93;;;;;;;;;;5052142;28;20200;-45
2022/09/30 09:41:32;;;;;;;8.27;7.47;;;;;;;;;;5053136;28;20200;-45
2022/09/30 09:44:03;;;;;;;7.20;6.00;;;;;;;;;;5053238;28;20303;-45
2022/09/30 09:46:30;;;;;;;9.40;7.57;;;;;;;;;;5052894;28;20200;-45
2022/09/30 09:49:19;;;;;;;8.97;8.07;;;;;;;;;;5052752;28;20558;-45
2022/09/30 09:51:47;;;;;;;7.77;6.83;;;;;;;;;;5052775;28;20639;-45
2022/09/30 09:54:16;;;;;;;9.30;7.60;;;;;;;;;;5052623;28;20227;-45
2022/09/30 09:56:43;;;;;;;7.53;6.73;;;;;;;;;;5052813;28;20228;-46
2022/09/30 09:59:12;;;;;;;7.30;6.60;;;;;;;;;;5052416;28;20206;-45
2022/09/30 10:01:39;;;;;;;7.80;6.93;;;;;;;;;;5052547;28;20284;-45
2022/09/30 10:04:09;;;;;;;8.77;7.80;;;;;;;;;;5052625;28;20307;-46
2022/09/30 10:06:43;;;;;;;8.33;7.63;;;;;;;;;;5052667;28;20201;-45
2022/09/30 10:09:21;;;;;;;8.80;8.00;;;;;;;;;;5051837;28;20226;-45
2022/09/30 10:11:48;;;;;;;8.83;7.20;;;;;;;;;;5051478;28;20192;-45
2022/09/30 10:14:16;;;;;;;7.17;6.57;;;;;;;;;;5052182;28;20697;-43
2022/09/30 10:16:42;;;;;;;9.10;7.87;;;;;;;;;;5052070;28;20197;-44
2022/09/30 10:19:18;;;;;;;7.87;7.17;;;;;;;;;;5051740;28;20205;-45
2022/09/30 10:21:44;;;;;;;8.40;7.63;;;;;;;;;;5051952;28;20669;-45
2022/09/30 10:24:18;;;;;;;8.23;7.47;;;;;;;;;;5051811;28;20219;-45
2022/09/30 10:26:44;;;;;;;8.43;7.63;;;;;;;;;;5051962;28;20202;-45
2022/09/30 10:29:25;;;;;;;11.20;8.10;;;;;;;;;;5051791;28;20193;-44
2022/09/30 10:31:51;;;;;;;7.50;6.80;;;;;;;;;;5052036;28;20233;-45
2022/09/30 10:34:21;;;;;;;8.77;7.57;;;;;;;;;;5050693;28;20243;-44
2022/09/30 10:36:47;;;;;;;8.80;7.43;;;;;;;;;;5051439;28;20281;-45
2022/09/30 10:39:22;;;;;;;7.80;6.97;;;;;;;;;;5051665;28;20450;-45
2022/09/30 10:41:48;;;;;;;8.70;7.63;;;;;;;;;;5051893;28;20694;-44
2022/09/30 10:44:16;;;;;;;10.53;7.03;;;;;;;;;;5051439;28;20664;-46
2022/09/30 10:46:44;;;;;;;9.60;7.33;;;;;;;;;;5051874;28;20652;-46
2022/09/30 10:49:17;;;;;;;11.33;7.10;;;;;;;;;;5051718;28;20273;-46
2022/09/30 10:51:45;;;;;;;7.80;7.00;;;;;;;;;;5034265;28;20294;-46
2022/09/30 10:54:31;;;;;;;7.13;6.43;;;;;;;;;;5051134;28;20653;-47
2022/09/30 10:57:02;;;;;;;8.33;7.53;;;;;;;;;;5051613;28;20217;-44
2022/09/30 10:59:31;;;;;;;7.43;6.73;;;;;;;;;;5051181;28;20216;-45
2022/09/30 11:02:00;;;;;;;8.40;7.63;;;;;;;;;;5051423;28;20203;-45
2022/09/30 11:04:29;;;;;;;8.10;7.27;;;;;;;;;;5050997;28;20231;-45
2022/09/30 11:06:57;;;;;;;7.13;6.30;;;;;;;;;;5051163;28;20205;-45
2022/09/30 11:09:27;;;;;;;7.90;7.17;;;;;;;;;;5051314;28;20207;-46
2022/09/30 11:11:56;;;;;;;7.60;6.90;;;;;;;;;;5051720;28;20282;-45
2022/09/30 11:14:29;;;;;;;7.27;6.57;;;;;;;;;;5051290;28;20231;-45
2022/09/30 11:17:02;;;;;;;7.93;6.80;;;;;;;;;;5051336;28;20200;-46
2022/09/30 11:19:30;;;;;;;8.80;7.20;;;;;;;;;;5051224;28;20784;-46
2022/09/30 11:21:58;;;;;;;6.63;6.03;;;;;;;;;;5050725;28;20192;-46
2022/09/30 11:24:28;;;;;;;6.60;6.00;;;;;;;;;;5050881;28;20207;-46
2022/09/30 11:26:59;;;;;;;6.57;5.97;;;;;;;;;;5051420;28;20196;-46
2022/09/30 11:29:40;;;;;;;5.37;4.50;;;;;;;;;;5051215;28;20717;-45
2022/09/30 11:32:11;;;;;;;4.93;4.53;;;;;;;;;;5054389;28;20228;-46
2022/09/30 11:34:46;;;;;;;6.87;6.20;;;;;;;;;;5057151;28;20266;-45
2022/09/30 11:37:17;;;;;;;6.70;5.47;;;;;;;;;;5057621;28;20543;-46
2022/09/30 11:39:49;;;;;;;7.43;6.73;;;;;;;;;;5057714;28;20195;-46
2022/09/30 11:42:21;;;;;;;5.77;5.07;;;;;;;;;;5057209;28;20654;-46
2022/09/30 11:44:53;;;;;;;8.13;5.30;;;;;;;;;;5057601;28;20202;-47
2022/09/30 11:47:34;;;;;;;7.10;6.40;;;;;;;;;;5057638;28;20302;-46
2022/09/30 11:50:22;;;;;;;6.73;6.13;;;;;;;;;;5054398;28;20199;-47
2022/09/30 11:52:54;;;;;;;6.10;5.50;;;;;;;;;;5057626;28;20620;-46
2022/09/30 11:55:26;;;;;;;7.03;5.67;;;;;;;;;;5057693;28;20204;-47
2022/09/30 11:57:57;;;;;;;9.30;5.77;;;;;;;;;;5057823;28;20200;-46
2022/09/30 12:00:26;;;;;;;6.73;5.50;;;;;;;;;;5057920;28;20683;-46
2022/09/30 12:02:54;;;;;;;6.80;6.07;;;;;;;;;;5057643;28;20549;-46
2022/09/30 12:05:23;;;;;;;5.43;4.70;;;;;;;;;;5056863;28;20313;-45
2022/09/30 12:07:50;;;;;;;5.37;4.83;;;;;;;;;;5057683;28;20223;-46
2022/09/30 12:10:20;;;;;;;5.60;5.10;;;;;;;;;;5056283;28;20195;-45
2022/09/30 12:12:48;;;;;;;7.37;5.40;;;;;;;;;;5057893;28;20206;-45
2022/09/30 12:15:16;;;;;;;6.90;5.30;;;;;;;;;;5057909;28;20278;-45
2022/09/30 12:17:46;;;;;;;7.80;5.63;;;;;;;;;;5057711;28;20203;-47
2022/09/30 12:20:17;;;;;;;8.63;5.37;;;;;;;;;;5057721;28;20200;-45
2022/09/30 12:22:44;;;;;;;6.87;5.90;;;;;;;;;;5057666;28;20196;-46
2022/09/30 12:25:12;;;;;;;6.50;5.90;;;;;;;;;;5057721;28;20650;-46
2022/09/30 12:27:42;;;;;;;8.13;5.43;;;;;;;;;;5057665;28;20195;-47
2022/09/30 12:30:19;;;;;;;7.90;5.30;;;;;;;;;;5057712;28;20662;-47
2022/09/30 12:33:00;;;;;;;6.40;5.80;;;;;;;;;;5057477;28;20244;-50
2022/09/30 12:35:42;;;;;;;7.33;5.80;;;;;;;;;;5057519;28;20210;-46
2022/09/30 12:38:19;;;;;;;8.90;5.50;;;;;;;;;;5057770;28;20212;-46
2022/09/30 12:41:03;;;;;;;6.50;5.90;;;;;;;;;;5057709;28;20191;-46
2022/09/30 12:43:50;;;;;;;7.80;6.80;;;;;;;;;;5055082;28;20204;-46
2022/09/30 12:46:19;;;;;;;8.17;6.77;;;;;;;;;;5054327;28;20307;-46
2022/09/30 12:48:47;;;;;;;8.83;6.40;;;;;;;;;;5054352;28;20196;-46
2022/09/30 12:51:22;;;;;;;7.37;6.60;;;;;;;;;;5054061;28;20215;-46
2022/09/30 12:53:50;;;;;;;8.07;7.33;;;;;;;;;;5054301;28;20282;-46
2022/09/30 12:56:17;;;;;;;7.90;7.10;;;;;;;;;;5053892;28;20226;-46
2022/09/30 12:58:43;;;;;;;7.83;6.63;;;;;;;;;;5053936;28;20565;-46
2022/09/30 13:01:12;;;;;;;8.07;7.00;;;;;;;;;;5054023;28;20602;-46
2022/09/30 13:03:51;;;;;;;8.67;6.43;;;;;;;;;;5054116;28;20196;-46
2022/09/30 13:06:18;;;;;;;6.63;6.03;;;;;;;;;;5053348;28;20217;-46
2022/09/30 13:08:47;;;;;;;7.03;5.60;;;;;;;;;;5053273;28;20215;-46
2022/09/30 13:11:32;;;;;;;6.07;5.20;;;;;;;;;;5052849;28;20198;-45
2022/09/30 13:14:01;;;;;;;5.50;5.00;;;;;;;;;;5052482;28;20240;-46
2022/09/30 13:16:46;;;;;;;6.03;4.67;;;;;;;;;;5052695;28;20201;-45
2022/09/30 13:19:19;;;;;;;5.37;4.40;;;;;;;;;;5053257;28;20192;-45
2022/09/30 13:21:45;;;;;;;4.43;4.00;;;;;;;;;;5053216;28;20703;-45
2022/09/30 13:24:15;;;;;;;5.73;4.27;;;;;;;;;;5053410;28;20198;-45
2022/09/30 13:26:47;;;;;;;5.00;4.50;;;;;;;;;;5053289;28;20247;-45
2022/09/30 13:29:38;;;;;;;5.03;4.53;;;;;;;;;;5053232;28;20203;-45
2022/09/30 13:32:05;;;;;;;8.00;4.40;;;;;;;;;;5053238;28;20319;-45
2022/09/30 13:34:32;;;;;;;4.83;4.27;;;;;;;;;;5052312;28;20232;-44
2022/09/30 13:36:59;;;;;;;4.53;3.73;;;;;;;;;;5053394;28;20271;-46
2022/09/30 13:39:27;;;;;;;4.87;3.83;;;;;;;;;;5052952;28;20206;-46
2022/09/30 13:42:01;;;;;;;4.67;3.67;;;;;;;;;;5053069;28;20205;-45
2022/09/30 13:44:31;;;;;;;3.37;3.07;;;;;;;;;;5052954;28;20659;-47
2022/09/30 13:46:59;;;;;;;5.30;3.90;;;;;;;;;;5052598;28;20201;-47
2022/09/30 13:49:32;;;;;;;6.60;4.50;;;;;;;;;;5051847;28;20206;-47
2022/09/30 13:51:59;;;;;;;4.83;3.97;;;;;;;;;;5052981;28;20759;-46
2022/09/30 13:54:28;;;;;;;4.00;3.60;;;;;;;;;;5052058;28;20224;-46
2022/09/30 13:56:55;;;;;;;5.73;3.67;;;;;;;;;;5052592;28;20282;-47
2022/09/30 13:59:38;;;;;;;4.03;3.63;;;;;;;;;;5052624;28;20280;-47
2022/09/30 14:02:28;;;;;;;4.13;3.53;;;;;;;;;;5052655;28;20284;-46
2022/09/30 14:05:13;;;;;;;6.30;4.10;;;;;;;;;;5032766;28;20575;-47
2022/09/30 14:07:44;;;;;;;4.97;4.17;;;;;;;;;;5052191;28;20220;-47
2022/09/30 14:10:37;;;;;;;5.07;4.50;;;;;;;;;;5052407;28;20204;-47
2022/09/30 14:13:15;;;;;;;4.23;3.83;;;;;;;;;;5003535;28;20654;-47
2022/09/30 14:15:54;;;;;;;8.10;3.70;;;;;;;;;;5052552;28;20201;-46
2022/09/30 14:18:31;;;;;;;4.47;4.00;;;;;;;;;;5052784;28;20244;-46
2022/09/30 14:21:04;;;;;;;5.00;4.00;;;;;;;;;;5052625;28;20196;-46
2022/09/30 14:23:30;;;;;;;4.70;3.67;;;;;;;;;;5052425;28;20291;-46
2022/09/30 14:25:59;;;;;;;4.53;3.50;;;;;;;;;;5052406;28;20239;-46
2022/09/30 14:28:31;;;;;;;4.50;4.10;;;;;;;;;;5050531;28;20196;-46
2022/09/30 14:31:09;;;;;;;5.13;3.73;;;;;;;;;;5050958;28;20299;-46
2022/09/30 14:33:35;;;;;;;3.77;3.37;;;;;;;;;;5051626;28;20242;-46
2022/09/30 14:36:03;;;;;;;4.20;3.63;;;;;;;;;;5051439;28;20199;-46
2022/09/30 14:38:30;;;;;;;5.50;4.17;;;;;;;;;;5051928;28;20200;-47
2022/09/30 14:40:58;;;;;;;4.70;4.30;;;;;;;;;;5053008;28;20209;-46